createdAt,value
2022-12-03T00:01:08.293Z,0.72
2022-12-03T00:03:35.231Z,0.66
2022-12-03T00:06:02.105Z,0.67
2022-12-03T00:08:28.943Z,0.64
2022-12-03T00:10:55.755Z,0.73
2022-12-03T00:13:22.578Z,0.69
2022-12-03T00:15:49.385Z,0.58
2022-12-03T00:18:16.247Z,0.56
2022-12-03T00:20:43.084Z,0.59
2022-12-03T00:23:09.862Z,0.62
2022-12-03T00:25:36.651Z,0.66
2022-12-03T00:28:03.490Z,0.61
2022-12-03T00:30:30.286Z,0.60
2022-12-03T00:32:57.154Z,0.57
2022-12-03T00:35:23.952Z,0.59
2022-12-03T00:37:50.749Z,0.60
2022-12-03T00:40:17.587Z,0.55
2022-12-03T00:42:44.361Z,0.50
2022-12-03T00:45:11.116Z,0.46
2022-12-03T00:47:37.912Z,0.56
2022-12-03T00:50:05.683Z,0.51
2022-12-03T00:52:32.452Z,0.58
2022-12-03T00:54:59.307Z,0.48
2022-12-03T00:57:27.095Z,0.59
2022-12-03T00:59:53.874Z,0.49
2022-12-03T01:02:20.775Z,0.45
2022-12-03T01:04:47.743Z,0.50
2022-12-03T01:07:14.587Z,0.51
2022-12-03T01:09:41.375Z,0.50
2022-12-03T01:12:08.227Z,0.52
2022-12-03T01:14:35.089Z,0.49
2022-12-03T01:17:01.861Z,0.49
2022-12-03T01:19:29.066Z,0.45
2022-12-03T01:21:55.927Z,0.32
2022-12-03T01:24:22.724Z,0.43
2022-12-03T01:26:49.576Z,0.32
2022-12-03T01:29:16.358Z,0.40
2022-12-03T01:31:43.248Z,0.37
2022-12-03T01:34:10.096Z,0.33
2022-12-03T01:36:36.925Z,0.40
2022-12-03T01:39:04.042Z,0.38
2022-12-03T01:41:31.974Z,0.38
2022-12-03T01:43:59.453Z,0.31
2022-12-03T01:46:34.833Z,0.33
2022-12-03T01:49:01.691Z,0.28
2022-12-03T01:51:29.270Z,0.23
2022-12-03T01:53:56.297Z,0.21
2022-12-03T01:56:23.110Z,0.14
2022-12-03T01:58:49.904Z,0.08
2022-12-03T02:01:18.481Z,0.09
2022-12-03T02:03:45.920Z,-0.01
2022-12-03T02:06:19.871Z,0.01
2022-12-03T02:08:47.914Z,-0.01
2022-12-03T02:11:31.654Z,0.06
2022-12-03T02:14:18.299Z,0.14
2022-12-03T02:16:45.726Z,0.15
2022-12-03T02:19:25.117Z,0.19
2022-12-03T02:22:10.294Z,0.18
2022-12-03T02:24:38.841Z,0.23
2022-12-03T02:27:06.039Z,0.16
2022-12-03T02:29:33.861Z,0.18
2022-12-03T02:32:00.752Z,0.17
2022-12-03T02:34:33.454Z,0.21
2022-12-03T02:37:00.703Z,0.28
2022-12-03T02:39:27.608Z,0.27
2022-12-03T02:41:54.426Z,0.30
2022-12-03T02:44:21.318Z,0.32
2022-12-03T02:46:48.143Z,0.35
2022-12-03T02:49:14.979Z,0.36
2022-12-03T02:51:41.801Z,0.33
2022-12-03T02:54:08.553Z,0.41
2022-12-03T02:56:35.418Z,0.34
2022-12-03T02:59:04.030Z,0.21
2022-12-03T03:01:30.908Z,0.21
2022-12-03T03:03:58.264Z,0.23
2022-12-03T03:06:25.180Z,0.25
2022-12-03T03:08:52.276Z,0.21
2022-12-03T03:11:19.083Z,0.25
2022-12-03T03:13:45.968Z,0.21
2022-12-03T03:16:12.961Z,0.27
2022-12-03T03:18:40.252Z,0.18
2022-12-03T03:21:07.234Z,0.17
2022-12-03T03:23:34.493Z,0.18
2022-12-03T03:26:02.934Z,0.16
2022-12-03T03:28:30.591Z,0.15
2022-12-03T03:30:58.708Z,0.14
2022-12-03T03:33:25.619Z,0.11
2022-12-03T03:35:53.222Z,0.08
2022-12-03T03:38:21.049Z,0.08
2022-12-03T03:40:48.915Z,0.16
2022-12-03T03:43:15.827Z,0.14
2022-12-03T03:45:43.256Z,0.23
2022-12-03T03:48:10.542Z,0.13
2022-12-03T03:50:37.472Z,0.23
2022-12-03T03:53:04.721Z,0.26
2022-12-03T03:55:31.943Z,0.28
2022-12-03T03:57:58.896Z,0.18
2022-12-03T04:00:25.779Z,0.23
2022-12-03T04:02:53.748Z,0.18
2022-12-03T04:05:22.095Z,0.20
2022-12-03T04:07:48.950Z,0.27
2022-12-03T04:10:16.266Z,0.28
2022-12-03T04:12:43.045Z,0.29
2022-12-03T04:15:09.921Z,0.26
2022-12-03T04:17:36.735Z,0.21
2022-12-03T04:20:03.767Z,0.22
2022-12-03T04:22:30.620Z,0.21
2022-12-03T04:24:57.403Z,0.31
2022-12-03T04:27:24.211Z,0.35
2022-12-03T04:29:51.024Z,0.37
2022-12-03T04:32:17.823Z,0.38
2022-12-03T04:34:44.619Z,0.43
2022-12-03T04:37:11.536Z,0.42
2022-12-03T04:39:38.569Z,0.37
2022-12-03T04:42:05.406Z,0.36
2022-12-03T04:44:32.747Z,0.28
2022-12-03T04:47:00.118Z,0.30
2022-12-03T04:49:26.942Z,0.39
2022-12-03T04:51:53.700Z,0.34
2022-12-03T04:54:21.495Z,0.32
2022-12-03T04:56:48.398Z,0.36
2022-12-03T04:59:16.577Z,0.36
2022-12-03T05:01:43.932Z,0.36
2022-12-03T05:04:11.336Z,0.33
2022-12-03T05:06:38.173Z,0.29
2022-12-03T05:09:06.497Z,0.32
2022-12-03T05:11:33.596Z,0.32
2022-12-03T05:14:00.387Z,0.32
2022-12-03T05:16:28.922Z,0.33
2022-12-03T05:18:55.774Z,0.35
2022-12-03T05:21:22.719Z,0.23
2022-12-03T05:23:49.839Z,0.29
2022-12-03T05:26:16.708Z,0.31
2022-12-03T05:28:43.561Z,0.21
2022-12-03T05:31:10.400Z,0.23
2022-12-03T05:33:42.458Z,0.21
2022-12-03T05:36:11.034Z,0.25
2022-12-03T05:38:37.844Z,0.28
2022-12-03T05:41:04.710Z,0.32
2022-12-03T05:43:31.557Z,0.42
2022-12-03T05:45:58.433Z,0.45
2022-12-03T05:48:25.246Z,0.49
2022-12-03T05:50:54.519Z,0.51
2022-12-03T05:53:21.483Z,0.60
2022-12-03T05:55:48.301Z,0.63
2022-12-03T05:58:15.086Z,0.59
2022-12-03T06:00:43.052Z,0.58
2022-12-03T06:03:10.632Z,0.49
2022-12-03T06:05:37.696Z,0.45
2022-12-03T06:08:04.590Z,0.55
2022-12-03T06:10:31.507Z,0.51
2022-12-03T06:12:58.280Z,0.52
2022-12-03T06:15:25.067Z,0.47
2022-12-03T06:17:51.895Z,0.49
2022-12-03T06:20:20.283Z,0.50
2022-12-03T06:22:47.393Z,0.50
2022-12-03T06:25:14.370Z,0.49
2022-12-03T06:27:41.190Z,0.51
2022-12-03T06:30:08.445Z,0.44
2022-12-03T06:32:35.478Z,0.42
2022-12-03T06:35:02.314Z,0.37
2022-12-03T06:37:29.130Z,0.38
2022-12-03T06:39:55.915Z,0.43
2022-12-03T06:42:22.724Z,0.43
2022-12-03T06:44:49.503Z,0.39
2022-12-03T06:47:16.316Z,0.43
2022-12-03T06:49:43.113Z,0.34
2022-12-03T06:52:09.910Z,0.37
2022-12-03T06:54:36.699Z,0.36
2022-12-03T06:57:03.529Z,0.38
2022-12-03T06:59:30.334Z,0.38
2022-12-03T07:01:57.149Z,0.21
2022-12-03T07:04:23.974Z,0.35
2022-12-03T07:06:50.771Z,0.28
2022-12-03T07:09:17.570Z,0.21
2022-12-03T07:11:44.360Z,0.16
2022-12-03T07:14:11.348Z,0.14
2022-12-03T07:16:39.115Z,0.19
2022-12-03T07:19:06.350Z,0.25
2022-12-03T07:21:33.159Z,0.25
2022-12-03T07:24:00.147Z,0.29
2022-12-03T07:26:26.970Z,0.27
2022-12-03T07:28:55.651Z,0.27
2022-12-03T07:31:22.680Z,0.28
2022-12-03T07:33:49.448Z,0.34
2022-12-03T07:36:16.262Z,0.32
2022-12-03T07:38:43.098Z,0.31
2022-12-03T07:41:09.907Z,0.38
2022-12-03T07:43:36.730Z,0.44
2022-12-03T07:46:03.535Z,0.49
2022-12-03T07:48:30.372Z,0.46
2022-12-03T07:50:58.387Z,0.53
2022-12-03T07:53:25.200Z,0.58
2022-12-03T07:55:52.016Z,0.61
2022-12-03T07:58:18.802Z,0.63
2022-12-03T08:00:45.656Z,0.67
2022-12-03T08:03:12.521Z,0.70
2022-12-03T08:05:39.304Z,0.68
2022-12-03T08:08:06.408Z,0.59
2022-12-03T08:10:33.338Z,0.54
2022-12-03T08:13:00.176Z,0.60
2022-12-03T08:15:30.186Z,0.62
2022-12-03T08:18:01.767Z,0.63
2022-12-03T08:20:31.510Z,0.58
2022-12-03T08:22:58.821Z,0.66
2022-12-03T08:25:30.401Z,0.69
2022-12-03T08:28:02.537Z,0.69
2022-12-03T08:30:29.333Z,0.73
2022-12-03T08:32:57.785Z,0.76
2022-12-03T08:35:27.074Z,0.71
2022-12-03T08:38:09.711Z,0.78
2022-12-03T08:40:40.749Z,0.81
2022-12-03T08:43:13.048Z,0.81
2022-12-03T08:45:41.194Z,0.86
2022-12-03T08:48:20.290Z,0.89
2022-12-03T08:50:47.302Z,0.82
2022-12-03T08:53:14.124Z,0.62
2022-12-03T08:55:48.125Z,0.61
2022-12-03T08:58:22.953Z,0.66
2022-12-03T09:00:56.831Z,0.69
2022-12-03T09:03:23.826Z,0.73
2022-12-03T09:05:50.666Z,0.81
2022-12-03T09:08:17.536Z,0.88
2022-12-03T09:10:44.417Z,0.93
2022-12-03T09:13:11.221Z,0.98
2022-12-03T09:15:38.053Z,0.90
2022-12-03T09:18:04.901Z,0.86
2022-12-03T09:20:31.702Z,0.89
2022-12-03T09:22:58.482Z,0.88
2022-12-03T09:25:25.260Z,0.88
2022-12-03T09:27:52.041Z,0.86
2022-12-03T09:30:18.839Z,0.83
2022-12-03T09:32:45.615Z,0.67
2022-12-03T09:35:12.403Z,0.78
2022-12-03T09:37:39.263Z,0.74
2022-12-03T09:40:06.433Z,0.80
2022-12-03T09:42:33.833Z,0.77
2022-12-03T09:45:01.717Z,0.84
2022-12-03T09:47:30.626Z,0.87
2022-12-03T09:49:57.639Z,0.86
2022-12-03T09:52:27.062Z,0.97
2022-12-03T09:54:54.746Z,0.98
2022-12-03T09:57:21.859Z,1.10
2022-12-03T09:59:48.632Z,1.11
2022-12-03T10:02:18.187Z,1.15
2022-12-03T10:04:45.246Z,1.15
2022-12-03T10:07:12.247Z,1.12
2022-12-03T10:09:39.050Z,1.20
2022-12-03T10:12:05.881Z,1.20
2022-12-03T10:14:32.731Z,1.33
2022-12-03T10:16:59.647Z,1.39
2022-12-03T10:19:28.657Z,1.38
2022-12-03T10:21:55.486Z,1.37
2022-12-03T10:24:22.313Z,1.46
2022-12-03T10:26:50.568Z,1.50
2022-12-03T10:29:37.617Z,1.50
2022-12-03T10:32:08.893Z,1.46
2022-12-03T10:34:35.668Z,1.53
2022-12-03T10:37:09.820Z,1.55
2022-12-03T10:39:56.252Z,1.55
2022-12-03T10:42:24.044Z,1.38
2022-12-03T10:45:06.313Z,1.46
2022-12-03T10:47:33.270Z,1.46
2022-12-03T10:50:05.545Z,1.21
2022-12-03T10:52:32.600Z,1.39
2022-12-03T10:54:59.391Z,1.56
2022-12-03T10:57:26.478Z,1.58
2022-12-03T10:59:53.387Z,1.64
2022-12-03T11:02:24.007Z,1.58
2022-12-03T11:04:51.757Z,1.74
2022-12-03T11:07:19.926Z,1.85
2022-12-03T11:09:50.803Z,1.78
2022-12-03T11:12:25.424Z,1.76
2022-12-03T11:14:52.577Z,1.92
2022-12-03T11:17:38.381Z,2.00
2022-12-03T11:20:24.837Z,2.03
2022-12-03T11:22:52.510Z,2.04
2022-12-03T11:25:25.281Z,1.83
2022-12-03T11:28:11.025Z,1.98
2022-12-03T11:30:50.156Z,1.94
2022-12-03T11:33:27.401Z,1.80
2022-12-03T11:36:03.314Z,1.54
2022-12-03T11:38:52.918Z,1.58
2022-12-03T11:41:20.688Z,1.71
2022-12-03T11:43:53.580Z,1.59
2022-12-03T11:46:25.258Z,1.71
2022-12-03T11:48:53.755Z,1.60
2022-12-03T11:51:24.918Z,1.59
2022-12-03T11:53:52.930Z,1.53
2022-12-03T11:56:22.322Z,1.67
2022-12-03T11:58:56.941Z,1.77
2022-12-03T12:01:36.925Z,1.73
2022-12-03T12:04:06.222Z,1.76
2022-12-03T12:06:43.493Z,1.55
2022-12-03T12:09:10.823Z,1.46
2022-12-03T12:11:38.573Z,1.56
2022-12-03T12:14:06.519Z,1.68
2022-12-03T12:16:39.414Z,1.53
2022-12-03T12:19:24.914Z,1.52
2022-12-03T12:21:51.718Z,1.47
2022-12-03T12:24:31.322Z,1.54
2022-12-03T12:27:07.305Z,1.41
2022-12-03T12:29:34.609Z,1.38
2022-12-03T12:32:10.682Z,1.31
2022-12-03T12:34:41.326Z,1.27
2022-12-03T12:37:20.335Z,1.34
2022-12-03T12:39:47.270Z,1.32
2022-12-03T12:42:29.255Z,1.35
2022-12-03T12:45:10.561Z,1.40
2022-12-03T12:47:37.435Z,1.48
2022-12-03T12:50:11.154Z,1.51
2022-12-03T12:52:46.842Z,1.54
2022-12-03T12:55:13.674Z,1.60
2022-12-03T12:57:40.473Z,1.41
2022-12-03T13:00:07.798Z,1.58
2022-12-03T13:02:37.691Z,1.52
2022-12-03T13:05:04.718Z,1.51
2022-12-03T13:07:31.679Z,1.55
2022-12-03T13:09:59.977Z,1.47
2022-12-03T13:12:26.764Z,1.48
2022-12-03T13:14:58.227Z,1.48
2022-12-03T13:17:25.122Z,1.43
2022-12-03T13:19:59.316Z,1.46
2022-12-03T13:22:30.394Z,1.51
2022-12-03T13:24:57.190Z,1.46
2022-12-03T13:27:28.427Z,1.46
2022-12-03T13:30:01.147Z,1.39
2022-12-03T13:32:31.034Z,1.38
2022-12-03T13:35:09.875Z,1.42
2022-12-03T13:37:37.193Z,1.41
2022-12-03T13:40:19.107Z,1.42
2022-12-03T13:42:46.038Z,1.44
2022-12-03T13:45:15.590Z,1.42
2022-12-03T13:47:44.340Z,1.41
2022-12-03T13:50:25.011Z,1.43
2022-12-03T13:52:51.866Z,1.38
2022-12-03T13:55:25.218Z,1.46
2022-12-03T13:57:52.407Z,1.41
2022-12-03T14:00:19.602Z,1.39
2022-12-03T14:02:49.713Z,1.33
2022-12-03T14:05:19.353Z,1.35
2022-12-03T14:07:46.728Z,1.34
2022-12-03T14:10:14.039Z,1.19
2022-12-03T14:12:40.849Z,1.25
2022-12-03T14:15:08.160Z,1.32
2022-12-03T14:17:35.044Z,1.31
2022-12-03T14:20:02.052Z,1.23
2022-12-03T14:22:29.469Z,1.29
2022-12-03T14:24:56.702Z,1.32
2022-12-03T14:27:23.958Z,1.34
2022-12-03T14:29:51.006Z,1.26
2022-12-03T14:32:17.876Z,1.23
2022-12-03T14:34:44.790Z,1.18
2022-12-03T14:37:11.668Z,1.22
2022-12-03T14:39:38.493Z,1.18
2022-12-03T14:42:05.370Z,1.29
2022-12-03T14:44:32.239Z,1.16
2022-12-03T14:46:59.016Z,1.10
2022-12-03T14:49:25.838Z,1.03
2022-12-03T14:51:52.691Z,1.09
2022-12-03T14:54:19.532Z,0.99
2022-12-03T14:56:46.333Z,0.95
2022-12-03T14:59:13.403Z,0.92
2022-12-03T15:01:47.993Z,0.96
2022-12-03T15:04:18.969Z,0.93
2022-12-03T15:06:45.805Z,0.96
2022-12-03T15:09:12.866Z,0.92
2022-12-03T15:11:45.800Z,0.86
2022-12-03T15:14:13.294Z,0.94
2022-12-03T15:16:40.196Z,0.93
2022-12-03T15:19:07.077Z,0.94
2022-12-03T15:21:33.909Z,0.91
2022-12-03T15:24:01.388Z,0.88
2022-12-03T15:26:28.190Z,0.95
2022-12-03T15:28:55.020Z,0.94
2022-12-03T15:31:21.854Z,0.97
2022-12-03T15:33:48.710Z,0.96
2022-12-03T15:36:15.639Z,0.94
2022-12-03T15:38:42.490Z,0.94
2022-12-03T15:41:09.387Z,0.95
2022-12-03T15:43:36.378Z,1.00
2022-12-03T15:46:03.203Z,0.96
2022-12-03T15:48:30.004Z,0.92
2022-12-03T15:50:56.760Z,0.96
2022-12-03T15:53:24.583Z,0.96
2022-12-03T15:55:51.392Z,0.87
2022-12-03T15:58:18.296Z,0.92
2022-12-03T16:00:45.243Z,0.97
2022-12-03T16:03:12.325Z,1.03
2022-12-03T16:05:39.541Z,1.02
2022-12-03T16:08:06.548Z,1.02
2022-12-03T16:10:33.724Z,0.99
2022-12-03T16:13:00.882Z,1.02
2022-12-03T16:15:28.356Z,0.94
2022-12-03T16:17:55.384Z,1.01
2022-12-03T16:20:22.318Z,1.01
2022-12-03T16:22:49.174Z,0.99
2022-12-03T16:25:16.060Z,1.03
2022-12-03T16:27:42.852Z,1.11
2022-12-03T16:30:09.972Z,1.06
2022-12-03T16:32:37.046Z,1.02
2022-12-03T16:35:04.050Z,1.08
2022-12-03T16:37:30.836Z,1.06
2022-12-03T16:39:57.727Z,1.10
2022-12-03T16:42:24.585Z,1.15
2022-12-03T16:44:51.411Z,1.11
2022-12-03T16:47:18.269Z,1.09
2022-12-03T16:49:45.103Z,1.13
2022-12-03T16:52:11.869Z,1.02
2022-12-03T16:54:38.657Z,1.03
2022-12-03T16:57:05.455Z,1.00
2022-12-03T16:59:32.287Z,0.97
2022-12-03T17:01:59.144Z,1.04
2022-12-03T17:04:26.026Z,1.02
2022-12-03T17:06:52.801Z,1.13
2022-12-03T17:09:19.611Z,1.10
2022-12-03T17:11:46.427Z,1.09
2022-12-03T17:14:13.207Z,1.08
2022-12-03T17:16:40.004Z,1.08
2022-12-03T17:19:06.789Z,1.07
2022-12-03T17:21:35.163Z,1.15
2022-12-03T17:24:02.118Z,1.14
2022-12-03T17:26:29.000Z,1.14
2022-12-03T17:28:55.813Z,1.02
2022-12-03T17:31:22.707Z,1.00
2022-12-03T17:33:49.640Z,1.04
2022-12-03T17:36:16.394Z,1.04
2022-12-03T17:38:43.274Z,1.00
2022-12-03T17:41:10.077Z,0.94
2022-12-03T17:43:36.893Z,1.03
2022-12-03T17:46:03.756Z,0.92
2022-12-03T17:48:30.534Z,0.89
2022-12-03T17:50:57.337Z,1.00
2022-12-03T17:53:24.291Z,0.98
2022-12-03T17:55:51.069Z,0.99
2022-12-03T17:58:17.963Z,1.04
2022-12-03T18:00:44.771Z,1.04
2022-12-03T18:03:11.546Z,1.08
2022-12-03T18:05:38.394Z,1.11
2022-12-03T18:08:05.652Z,1.09
2022-12-03T18:10:32.487Z,1.07
2022-12-03T18:13:01.863Z,1.15
2022-12-03T18:15:29.600Z,1.12
2022-12-03T18:17:56.370Z,1.09
2022-12-03T18:20:23.185Z,1.10
2022-12-03T18:22:49.996Z,1.14
2022-12-03T18:25:16.810Z,1.04
2022-12-03T18:27:45.008Z,1.04
2022-12-03T18:30:12.064Z,1.03
2022-12-03T18:32:38.920Z,1.09
2022-12-03T18:35:06.013Z,1.04
2022-12-03T18:37:32.963Z,1.01
2022-12-03T18:40:00.388Z,0.99
2022-12-03T18:42:27.286Z,0.95
2022-12-03T18:44:55.226Z,1.06
2022-12-03T18:47:27.101Z,1.08
2022-12-03T18:49:54.264Z,1.07
2022-12-03T18:52:22.115Z,1.01
2022-12-03T18:54:49.102Z,0.99
2022-12-03T18:57:16.222Z,1.02
2022-12-03T18:59:43.105Z,1.00
2022-12-03T19:02:26.704Z,0.94
2022-12-03T19:05:01.805Z,1.04
2022-12-03T19:07:28.770Z,1.02
2022-12-03T19:09:55.958Z,1.01
2022-12-03T19:12:22.875Z,1.04
2022-12-03T19:14:49.684Z,1.02
2022-12-03T19:17:16.515Z,1.03
2022-12-03T19:19:43.334Z,0.94
2022-12-03T19:22:10.111Z,0.99
2022-12-03T19:24:36.902Z,1.02
2022-12-03T19:27:03.866Z,0.99
2022-12-03T19:29:30.677Z,0.96
2022-12-03T19:31:57.605Z,0.99
2022-12-03T19:34:24.474Z,1.01
2022-12-03T19:36:52.416Z,0.98
2022-12-03T19:39:19.299Z,0.98
2022-12-03T19:41:46.087Z,0.99
2022-12-03T19:44:14.098Z,1.01
2022-12-03T19:46:41.299Z,1.02
2022-12-03T19:49:08.410Z,0.99
2022-12-03T19:51:36.798Z,1.07
2022-12-03T19:54:04.659Z,1.03
2022-12-03T19:56:31.524Z,0.95
2022-12-03T19:58:58.632Z,1.02
2022-12-03T20:01:26.863Z,1.06
2022-12-03T20:03:56.503Z,0.96
2022-12-03T20:06:25.066Z,1.00
2022-12-03T20:09:02.872Z,1.03
2022-12-03T20:11:31.089Z,1.02
2022-12-03T20:13:59.570Z,1.02
2022-12-03T20:16:27.365Z,1.03
2022-12-03T20:18:58.818Z,0.96
2022-12-03T20:21:25.854Z,0.97
2022-12-03T20:23:52.939Z,0.99
2022-12-03T20:26:20.672Z,1.00
2022-12-03T20:28:48.047Z,1.05
2022-12-03T20:31:16.216Z,1.06
2022-12-03T20:33:44.649Z,1.13
2022-12-03T20:36:12.532Z,1.03
2022-12-03T20:38:39.453Z,0.85
2022-12-03T20:41:10.486Z,0.85
2022-12-03T20:43:37.612Z,0.94
2022-12-03T20:46:11.877Z,1.02
2022-12-03T20:48:38.973Z,1.04
2022-12-03T20:51:06.704Z,1.04
2022-12-03T20:53:33.778Z,0.97
2022-12-03T20:56:01.268Z,1.03
2022-12-03T20:58:29.052Z,1.02
2022-12-03T21:01:10.035Z,0.95
2022-12-03T21:03:39.330Z,0.98
2022-12-03T21:06:06.534Z,0.98
2022-12-03T21:08:40.907Z,0.98
2022-12-03T21:11:09.086Z,0.93
2022-12-03T21:13:35.893Z,0.95
2022-12-03T21:16:04.780Z,0.98
2022-12-03T21:18:31.613Z,0.94
2022-12-03T21:20:59.479Z,0.93
2022-12-03T21:23:26.821Z,0.96
2022-12-03T21:25:53.662Z,0.99
2022-12-03T21:28:24.814Z,1.03
2022-12-03T21:30:51.927Z,1.04
2022-12-03T21:33:19.272Z,0.95
2022-12-03T21:35:46.076Z,1.01
2022-12-03T21:38:12.896Z,0.94
2022-12-03T21:40:39.705Z,1.03
2022-12-03T21:43:06.500Z,1.09
2022-12-03T21:45:33.305Z,1.12
2022-12-03T21:48:00.225Z,1.02
2022-12-03T21:50:27.112Z,1.03
2022-12-03T21:52:53.874Z,1.03
2022-12-03T21:55:20.708Z,1.10
2022-12-03T21:57:47.499Z,1.03
2022-12-03T22:00:14.497Z,1.10
2022-12-03T22:02:41.392Z,1.21
2022-12-03T22:05:09.998Z,1.15
2022-12-03T22:07:37.517Z,1.27
2022-12-03T22:10:05.604Z,1.26
2022-12-03T22:12:32.542Z,1.32
2022-12-03T22:14:59.331Z,1.34
2022-12-03T22:17:26.633Z,1.31
2022-12-03T22:19:53.675Z,1.26
2022-12-03T22:22:20.635Z,1.19
2022-12-03T22:24:47.431Z,1.11
2022-12-03T22:27:14.474Z,1.08
2022-12-03T22:29:41.245Z,1.06
2022-12-03T22:32:08.039Z,1.13
2022-12-03T22:34:34.860Z,1.17
2022-12-03T22:37:01.647Z,1.16
2022-12-03T22:39:28.468Z,1.17
2022-12-03T22:41:55.285Z,1.15
2022-12-03T22:44:22.103Z,1.11
2022-12-03T22:46:49.021Z,1.09
2022-12-03T22:49:15.936Z,1.11
2022-12-03T22:51:45.365Z,1.22
2022-12-03T22:54:12.703Z,1.22
2022-12-03T22:56:39.676Z,1.09
2022-12-03T22:59:06.519Z,1.12
2022-12-03T23:01:34.728Z,1.14
2022-12-03T23:04:01.843Z,1.21
2022-12-03T23:06:30.536Z,1.24
2022-12-03T23:08:57.993Z,1.27
2022-12-03T23:11:24.923Z,1.33
2022-12-03T23:13:51.954Z,1.25
2022-12-03T23:16:20.319Z,1.30
2022-12-03T23:18:47.174Z,1.34
2022-12-03T23:21:20.736Z,1.25
2022-12-03T23:23:51.753Z,1.24
2022-12-03T23:26:18.619Z,1.29
2022-12-03T23:28:46.241Z,1.34
2022-12-03T23:31:18.005Z,1.36
2022-12-03T23:33:44.927Z,1.15
2022-12-03T23:36:12.308Z,1.10
2022-12-03T23:38:39.647Z,1.06
2022-12-03T23:41:07.222Z,1.14
2022-12-03T23:43:34.052Z,1.13
2022-12-03T23:46:08.233Z,1.15
2022-12-03T23:48:35.064Z,1.25
2022-12-03T23:51:05.673Z,1.28
2022-12-03T23:53:32.468Z,1.26
2022-12-03T23:55:59.261Z,1.32
2022-12-03T23:58:26.017Z,1.17
